createdAt,value
2023-04-07T00:01:53.379Z,100471.06
2023-04-07T00:07:00.545Z,100466.96
2023-04-07T00:12:07.848Z,100462.88
2023-04-07T00:17:15.015Z,100465.73
2023-04-07T00:22:22.511Z,100464.36
2023-04-07T00:27:29.411Z,100457.73
2023-04-07T00:32:36.762Z,100451.08
2023-04-07T00:37:44.044Z,100452.43
2023-04-07T00:42:50.981Z,100443.92
2023-04-07T00:47:59.697Z,100439.65
2023-04-07T00:53:07.512Z,100435.38
2023-04-07T00:58:14.789Z,100429.91
2023-04-07T01:03:31.872Z,100421.74
2023-04-07T01:08:44.669Z,100419.86
2023-04-07T01:13:53.681Z,100420.52
2023-04-07T01:19:35.408Z,100419.29
2023-04-07T01:25:04.635Z,100419.25
2023-04-07T01:30:14.613Z,100413.63
2023-04-07T01:35:23.538Z,100415.47
2023-04-07T01:40:31.497Z,100413.91
2023-04-07T01:45:39.639Z,100409.13
2023-04-07T01:50:47.720Z,100402.48
2023-04-07T01:55:55.661Z,100402.80
2023-04-07T02:01:03.084Z,100397.52
2023-04-07T02:06:14.063Z,100395.30
2023-04-07T02:11:26.449Z,100391.56
2023-04-07T02:16:37.200Z,100389.52
2023-04-07T02:21:45.756Z,100384.95
2023-04-07T02:26:52.867Z,100381.22
2023-04-07T02:32:00.084Z,100375.93
2023-04-07T02:37:11.956Z,100377.80
2023-04-07T02:42:18.991Z,100375.41
2023-04-07T02:47:26.512Z,100367.27
2023-04-07T02:52:33.553Z,100366.58
2023-04-07T02:57:42.139Z,100363.85
2023-04-07T03:02:54.246Z,100357.92
2023-04-07T03:08:01.386Z,100354.54
2023-04-07T03:13:09.464Z,100355.39
2023-04-07T03:18:17.071Z,100360.79
2023-04-07T03:23:24.992Z,100362.83
2023-04-07T03:28:32.091Z,100364.36
2023-04-07T03:33:40.404Z,100364.20
2023-04-07T03:38:49.632Z,100367.09
2023-04-07T03:43:57.898Z,100363.20
2023-04-07T03:49:04.922Z,100360.48
2023-04-07T03:54:12.860Z,100355.23
2023-04-07T03:59:22.371Z,100351.15
2023-04-07T04:04:37.593Z,100350.64
2023-04-07T04:09:44.761Z,100349.80
2023-04-07T04:14:52.336Z,100354.55
2023-04-07T04:19:59.853Z,100353.88
2023-04-07T04:25:17.931Z,100354.55
2023-04-07T04:30:28.232Z,100354.85
2023-04-07T04:35:39.676Z,100356.20
2023-04-07T04:40:52.339Z,100357.39
2023-04-07T04:46:03.708Z,100362.48
2023-04-07T04:51:14.142Z,100356.40
2023-04-07T04:56:21.948Z,100355.23
2023-04-07T05:01:31.482Z,100358.27
2023-04-07T05:06:47.062Z,100358.61
2023-04-07T05:11:55.867Z,100363.54
2023-04-07T05:17:03.818Z,100365.92
2023-04-07T05:22:10.983Z,100364.91
2023-04-07T05:27:24.386Z,100365.09
2023-04-07T05:32:33.812Z,100367.29
2023-04-07T05:37:44.537Z,100365.98
2023-04-07T05:42:51.957Z,100360.37
2023-04-07T05:47:59.078Z,100362.42
2023-04-07T05:53:12.084Z,100358.86
2023-04-07T05:58:21.630Z,100360.06
2023-04-07T06:03:32.033Z,100361.75
2023-04-07T06:08:50.203Z,100362.61
2023-04-07T06:13:57.386Z,100366.70
2023-04-07T06:19:04.661Z,100365.19
2023-04-07T06:24:11.994Z,100362.34
2023-04-07T06:29:18.974Z,100362.35
2023-04-07T06:34:26.171Z,100365.91
2023-04-07T06:39:39.282Z,100364.22
2023-04-07T06:44:46.154Z,100361.00
2023-04-07T06:49:53.029Z,100362.70
2023-04-07T06:55:00.143Z,100352.89
2023-04-07T07:00:09.192Z,100361.39
2023-04-07T07:05:16.182Z,100353.27
2023-04-07T07:10:23.620Z,100348.18
2023-04-07T07:15:30.537Z,100348.21
2023-04-07T07:20:37.498Z,100348.05
2023-04-07T07:25:44.396Z,100349.42
2023-04-07T07:30:51.308Z,100350.63
2023-04-07T07:35:58.248Z,100354.88
2023-04-07T07:41:05.399Z,100359.49
2023-04-07T07:46:12.494Z,100366.96
2023-04-07T07:51:19.525Z,100373.42
2023-04-07T07:56:26.442Z,100377.52
2023-04-07T08:01:33.593Z,100382.81
2023-04-07T08:06:40.917Z,100381.96
2023-04-07T08:11:48.848Z,100376.37
2023-04-07T08:16:55.887Z,100374.16
2023-04-07T08:22:02.838Z,100369.09
2023-04-07T08:27:09.889Z,100366.89
2023-04-07T08:32:16.974Z,100371.15
2023-04-07T08:37:24.426Z,100361.13
2023-04-07T08:42:33.310Z,100359.94
2023-04-07T08:47:42.501Z,100364.70
2023-04-07T08:53:01.714Z,100365.39
2023-04-07T08:58:12.640Z,100366.40
2023-04-07T09:03:20.690Z,100372.17
2023-04-07T09:08:27.867Z,100367.25
2023-04-07T09:13:34.858Z,100369.78
2023-04-07T09:18:42.874Z,100365.20
2023-04-07T09:23:50.830Z,100367.42
2023-04-07T09:29:00.009Z,100366.38
2023-04-07T09:34:24.763Z,100362.30
2023-04-07T09:39:32.305Z,100356.36
2023-04-07T09:44:43.537Z,100357.36
2023-04-07T09:49:55.400Z,100363.66
2023-04-07T09:55:03.429Z,100362.30
2023-04-07T10:00:15.626Z,100361.80
2023-04-07T10:05:23.355Z,100360.95
2023-04-07T10:10:31.862Z,100359.91
2023-04-07T10:15:38.981Z,100359.05
2023-04-07T10:20:46.914Z,100356.49
2023-04-07T10:25:58.494Z,100348.98
2023-04-07T10:31:05.866Z,100351.52
2023-04-07T10:36:14.827Z,100349.31
2023-04-07T10:41:39.311Z,100352.88
2023-04-07T10:47:07.724Z,100349.28
2023-04-07T10:52:31.326Z,100350.29
2023-04-07T10:57:38.270Z,100347.57
2023-04-07T11:02:45.750Z,100354.38
2023-04-07T11:07:59.481Z,100357.61
2023-04-07T11:13:10.604Z,100357.61
2023-04-07T11:18:19.772Z,100357.09
2023-04-07T11:23:28.623Z,100359.66
2023-04-07T11:28:36.250Z,100359.84
2023-04-07T11:33:43.833Z,100357.96
2023-04-07T11:38:50.810Z,100351.11
2023-04-07T11:44:11.765Z,100347.52
2023-04-07T11:49:20.784Z,100350.23
2023-04-07T11:54:27.847Z,100347.67
2023-04-07T11:59:34.836Z,100344.91
2023-04-07T12:04:59.113Z,100343.36
2023-04-07T12:10:23.930Z,100338.41
2023-04-07T12:15:38.712Z,100333.30
2023-04-07T12:20:45.801Z,100335.50
2023-04-07T12:25:52.977Z,100330.03
2023-04-07T12:30:59.999Z,100330.54
2023-04-07T12:36:09.064Z,100331.56
2023-04-07T12:41:16.524Z,100330.88
2023-04-07T12:46:23.637Z,100333.59
2023-04-07T12:51:33.519Z,100326.13
2023-04-07T12:56:42.378Z,100325.95
2023-04-07T13:01:51.092Z,100322.40
2023-04-07T13:06:58.358Z,100317.28
2023-04-07T13:12:05.525Z,100310.27
2023-04-07T13:17:13.016Z,100312.48
2023-04-07T13:22:22.222Z,100315.55
2023-04-07T13:27:31.416Z,100313.87
2023-04-07T13:32:38.427Z,100317.10
2023-04-07T13:37:45.878Z,100319.86
2023-04-07T13:42:52.804Z,100315.98
2023-04-07T13:47:59.902Z,100320.24
2023-04-07T13:53:07.451Z,100317.70
2023-04-07T13:58:14.734Z,100318.39
2023-04-07T14:03:22.656Z,100318.05
2023-04-07T14:08:30.711Z,100312.29
2023-04-07T14:13:38.406Z,100314.36
2023-04-07T14:18:47.662Z,100315.89
2023-04-07T14:23:55.464Z,100314.90
2023-04-07T14:29:03.060Z,100317.48
2023-04-07T14:34:10.223Z,100316.45
2023-04-07T14:39:17.339Z,100319.01
2023-04-07T14:44:24.475Z,100319.86
2023-04-07T14:49:31.508Z,100318.84
2023-04-07T14:54:38.603Z,100316.80
2023-04-07T14:59:45.585Z,100317.66
2023-04-07T15:04:52.783Z,100320.23
2023-04-07T15:10:00.928Z,100326.52
2023-04-07T15:15:09.381Z,100330.60
2023-04-07T15:20:16.497Z,100333.84
2023-04-07T15:25:24.569Z,100332.00
2023-04-07T15:30:34.186Z,100331.14
2023-04-07T15:35:44.750Z,100334.55
2023-04-07T15:40:51.877Z,100334.89
2023-04-07T15:45:59.100Z,100330.46
2023-04-07T15:51:06.318Z,100331.33
2023-04-07T15:56:13.964Z,100326.21
2023-04-07T16:01:21.760Z,100319.23
2023-04-07T16:06:28.939Z,100314.48
2023-04-07T16:11:36.261Z,100310.73
2023-04-07T16:16:44.812Z,100308.34
2023-04-07T16:21:51.813Z,100309.02
2023-04-07T16:27:04.017Z,100308.84
2023-04-07T16:32:11.486Z,100313.42
2023-04-07T16:37:18.763Z,100314.12
2023-04-07T16:42:25.911Z,100316.16
2023-04-07T16:47:33.414Z,100319.92
2023-04-07T16:52:40.592Z,100322.98
2023-04-07T16:57:48.402Z,100323.50
2023-04-07T17:02:55.953Z,100329.46
2023-04-07T17:08:03.129Z,100329.98
2023-04-07T17:13:10.399Z,100331.66
2023-04-07T17:18:17.581Z,100336.42
2023-04-07T17:23:24.655Z,100338.48
2023-04-07T17:28:32.247Z,100345.11
2023-04-07T17:33:39.438Z,100352.27
2023-04-07T17:38:48.098Z,100352.60
2023-04-07T17:43:55.952Z,100356.19
2023-04-07T17:49:03.568Z,100357.54
2023-04-07T17:54:10.716Z,100359.42
2023-04-07T17:59:17.928Z,100360.61
2023-04-07T18:04:26.462Z,100364.52
2023-04-07T18:09:34.407Z,100372.17
2023-04-07T18:14:42.130Z,100372.52
2023-04-07T18:19:49.985Z,100375.58
2023-04-07T18:24:57.300Z,100378.30
2023-04-07T18:30:04.942Z,100378.48
2023-04-07T18:35:12.361Z,100380.86
2023-04-07T18:40:19.657Z,100383.90
2023-04-07T18:45:27.461Z,100388.15
2023-04-07T18:50:34.891Z,100384.59
2023-04-07T18:55:43.101Z,100385.44
2023-04-07T19:00:50.930Z,100386.10
2023-04-07T19:05:58.978Z,100385.26
2023-04-07T19:11:06.615Z,100382.70
2023-04-07T19:16:13.926Z,100383.89
2023-04-07T19:21:22.358Z,100387.63
2023-04-07T19:26:30.358Z,100390.35
2023-04-07T19:31:37.459Z,100390.36
2023-04-07T19:36:44.699Z,100385.77
2023-04-07T19:41:51.833Z,100385.42
2023-04-07T19:47:00.549Z,100388.48
2023-04-07T19:52:07.959Z,100388.82
2023-04-07T19:57:16.479Z,100385.75
2023-04-07T20:02:24.171Z,100385.08
2023-04-07T20:07:31.525Z,100384.06
2023-04-07T20:12:38.546Z,100384.39
2023-04-07T20:17:48.082Z,100384.39
2023-04-07T20:22:55.956Z,100383.89
2023-04-07T20:28:03.887Z,100389.50
2023-04-07T20:33:11.171Z,100389.16
2023-04-07T20:38:18.844Z,100392.73
2023-04-07T20:43:25.919Z,100389.67
2023-04-07T20:48:33.830Z,100388.48
2023-04-07T20:53:40.904Z,100385.25
2023-04-07T20:58:48.558Z,100379.64
2023-04-07T21:03:56.092Z,100382.88
2023-04-07T21:09:05.744Z,100393.77
2023-04-07T21:14:12.903Z,100396.14
2023-04-07T21:19:20.119Z,100396.64
2023-04-07T21:24:27.262Z,100400.39
2023-04-07T21:29:34.290Z,100402.94
2023-04-07T21:34:41.274Z,100396.65
2023-04-07T21:39:48.396Z,100394.77
2023-04-07T21:44:56.014Z,100392.90
2023-04-07T21:50:03.185Z,100390.69
2023-04-07T21:55:12.970Z,100390.69
2023-04-07T22:00:20.530Z,100391.54
2023-04-07T22:05:27.530Z,100390.84
2023-04-07T22:10:34.914Z,100392.73
2023-04-07T22:15:41.959Z,100396.11
2023-04-07T22:20:49.046Z,100395.95
2023-04-07T22:25:56.469Z,100395.60
2023-04-07T22:31:03.809Z,100394.92
2023-04-07T22:36:11.157Z,100390.49
2023-04-07T22:41:18.216Z,100391.69
2023-04-07T22:46:25.500Z,100398.83
2023-04-07T22:51:32.668Z,100405.48
2023-04-07T22:56:39.864Z,100416.52
2023-04-07T23:01:47.475Z,100418.07
2023-04-07T23:06:54.707Z,100421.63
2023-04-07T23:12:01.903Z,100425.71
2023-04-07T23:17:09.066Z,100429.63
2023-04-07T23:22:16.271Z,100434.21
2023-04-07T23:27:23.362Z,100431.65
2023-04-07T23:32:30.506Z,100431.66
2023-04-07T23:37:37.639Z,100430.98
2023-04-07T23:42:44.795Z,100434.38
2023-04-07T23:47:51.754Z,100434.20
2023-04-07T23:52:58.922Z,100439.48
2023-04-07T23:58:05.991Z,100443.57
